Callender, IA (50523)

3:27 AM CST on December 26, 2014 (GMT -0600)
Expo Pool Area | Change Station
CLOSE
Current Station
Personal Weather Station
Location: Fort Dodge, IA
Elevation: 1093 ft
Nearby Weather Stations

Elev 1093 ft 42.52 °N, 94.19 °W | Updated 14 minutes ago

Clear
Clear
27.7 °F
Feels Like 28 °F
N
2.7
Wind Variable Wind from NNW

Today
High -- | Low -- °F
--% Chance of Precip.
Yesterday
High -- | Low -- °F
Precip. -- in
7:45 AM 4:50 PM
Waxing Crescent, 24% visible
Pressure 29.81 in
Visibility 10.0 miles
Clouds Clear
Windchill 28 °F
Dew Point 27 °F
Humidity 98%
Rainfall 0.00 in
Snow Depth Not available.
UV 0 out of 12
Pollen .10 out of 12
Air Quality Not available.
Flu Activity Not available.
METAR KFOD 260915Z AUTO 00000KT 10SM CLR M02/M04 A2981 RMK AO1

More Conditions Fewer Conditions

Pressure 29.81 in
Visibility 10.0 miles
Clouds Clear
Windchill 28 °F
Dew Point 27 °F
Humidity 98%
Rainfall 0.00 in
Snow Depth Not available.
UV 0 out of 12
Pollen .10 out of 12
Air Quality Not available.
Flu Activity Not available.
METAR KFOD 260915Z AUTO 00000KT 10SM CLR M02/M04 A2981 RMK AO1

More Conditions Fewer Conditions

10-Day Weather Forecast

Almanac

Astronomy

Dec. 26, 2014 Rise Set
Actual Time
Civil Twilight
Nautical Twilight
Astronomical Twilight
Moon
Length of Visible Light
Length of Day
Tomorrow will be .
, % of the Moon is Illuminated

Today's Extremes

State Highs State Lows

Community

WunderPhotos

Upload Photos

1,780,568 photos uploaded!

WunderBlogs® & News

Nearby

Air Quality

  Air Quality AQ Index Pollutant
Not available.

Snow Depth

Station Depth Elevation

Earthquake Activity

City Distance Mag. Time & Date
Minimum magnitude displayed is 2.5.

Coastal Water Temperatures

Place Temperature

Nearby Weather Stations